sensor_id;sensor_type;location;lat;lon;timestamp;P1;durP1;ratioP1;P2;durP2;ratioP2
60718;SDS011;46567;51.660;5.824;2023-04-30T00:00:50;11.9;;;7.5;;
60718;SDS011;46567;51.660;5.824;2023-04-30T00:05:50;11.2;;;7.8;;
60718;SDS011;46567;51.660;5.824;2023-04-30T00:10:50;11.1;;;8.0;;
60718;SDS011;46567;51.660;5.824;2023-04-30T00:15:50;11.8;;;7.9;;
60718;SDS011;46567;51.660;5.824;2023-04-30T00:20:50;12.3;;;7.8;;
60718;SDS011;46567;51.660;5.824;2023-04-30T00:25:50;11.5;;;7.7;;
60718;SDS011;46567;51.660;5.824;2023-04-30T00:30:50;10.9;;;7.4;;
60718;SDS011;46567;51.660;5.824;2023-04-30T00:35:50;10.9;;;7.0;;
60718;SDS011;46567;51.660;5.824;2023-04-30T00:40:50;9.8;;;6.9;;
60718;SDS011;46567;51.660;5.824;2023-04-30T00:45:50;12.4;;;7.0;;
60718;SDS011;46567;51.660;5.824;2023-04-30T00:50:50;11.6;;;7.6;;
60718;SDS011;46567;51.660;5.824;2023-04-30T00:55:50;10.3;;;7.8;;
60718;SDS011;46567;51.660;5.824;2023-04-30T01:00:51;11.7;;;7.0;;
60718;SDS011;46567;51.660;5.824;2023-04-30T01:05:50;12.0;;;6.9;;
60718;SDS011;46567;51.660;5.824;2023-04-30T01:11:11;11.8;;;6.8;;
60718;SDS011;46567;51.660;5.824;2023-04-30T01:16:02;11.6;;;7.2;;
60718;SDS011;46567;51.660;5.824;2023-04-30T01:20:52;9.7;;;6.4;;
60718;SDS011;46567;51.660;5.824;2023-04-30T01:27:24;11.0;;;6.8;;
60718;SDS011;46567;51.660;5.824;2023-04-30T01:30:50;13.5;;;7.0;;
60718;SDS011;46567;51.660;5.824;2023-04-30T01:35:57;9.9;;;6.9;;
60718;SDS011;46567;51.660;5.824;2023-04-30T01:41:08;9.9;;;7.2;;
60718;SDS011;46567;51.660;5.824;2023-04-30T01:46:24;10.1;;;6.9;;
60718;SDS011;46567;51.660;5.824;2023-04-30T01:50:52;15.2;;;7.4;;
60718;SDS011;46567;51.660;5.824;2023-04-30T01:55:58;13.9;;;7.7;;
60718;SDS011;46567;51.660;5.824;2023-04-30T02:00:50;10.9;;;7.3;;
60718;SDS011;46567;51.660;5.824;2023-04-30T02:05:51;9.3;;;6.9;;
60718;SDS011;46567;51.660;5.824;2023-04-30T02:10:50;11.7;;;7.4;;
60718;SDS011;46567;51.660;5.824;2023-04-30T02:15:50;10.4;;;6.9;;
60718;SDS011;46567;51.660;5.824;2023-04-30T02:20:50;10.0;;;6.8;;
60718;SDS011;46567;51.660;5.824;2023-04-30T02:25:50;10.5;;;7.2;;
60718;SDS011;46567;51.660;5.824;2023-04-30T02:30:50;12.2;;;7.7;;
60718;SDS011;46567;51.660;5.824;2023-04-30T02:35:50;13.3;;;7.9;;
60718;SDS011;46567;51.660;5.824;2023-04-30T02:40:50;11.8;;;7.6;;
60718;SDS011;46567;51.660;5.824;2023-04-30T02:45:50;10.0;;;6.9;;
60718;SDS011;46567;51.660;5.824;2023-04-30T02:50:50;10.0;;;7.3;;
60718;SDS011;46567;51.660;5.824;2023-04-30T02:55:50;10.0;;;7.8;;
60718;SDS011;46567;51.660;5.824;2023-04-30T03:00:50;12.2;;;8.0;;
60718;SDS011;46567;51.660;5.824;2023-04-30T03:05:50;13.6;;;8.3;;
60718;SDS011;46567;51.660;5.824;2023-04-30T03:10:50;15.5;;;8.4;;
60718;SDS011;46567;51.660;5.824;2023-04-30T03:15:55;12.8;;;8.1;;
60718;SDS011;46567;51.660;5.824;2023-04-30T03:20:50;10.8;;;7.3;;
60718;SDS011;46567;51.660;5.824;2023-04-30T03:25:50;12.2;;;7.9;;
60718;SDS011;46567;51.660;5.824;2023-04-30T03:30:51;12.7;;;8.5;;
60718;SDS011;46567;51.660;5.824;2023-04-30T03:35:50;11.6;;;8.1;;
60718;SDS011;46567;51.660;5.824;2023-04-30T03:40:50;11.0;;;7.4;;
60718;SDS011;46567;51.660;5.824;2023-04-30T03:45:50;12.2;;;8.7;;
60718;SDS011;46567;51.660;5.824;2023-04-30T03:50:50;12.8;;;8.1;;
60718;SDS011;46567;51.660;5.824;2023-04-30T03:55:50;13.1;;;8.2;;
60718;SDS011;46567;51.660;5.824;2023-04-30T04:00:50;13.1;;;8.6;;
60718;SDS011;46567;51.660;5.824;2023-04-30T04:05:50;15.0;;;8.7;;
60718;SDS011;46567;51.660;5.824;2023-04-30T04:10:50;15.6;;;8.9;;
60718;SDS011;46567;51.660;5.824;2023-04-30T04:15:50;13.0;;;9.0;;
60718;SDS011;46567;51.660;5.824;2023-04-30T04:20:50;11.7;;;8.9;;
60718;SDS011;46567;51.660;5.824;2023-04-30T04:25:50;12.2;;;8.3;;
60718;SDS011;46567;51.660;5.824;2023-04-30T04:30:50;13.1;;;9.2;;
60718;SDS011;46567;51.660;5.824;2023-04-30T04:35:50;12.0;;;8.5;;
60718;SDS011;46567;51.660;5.824;2023-04-30T04:40:51;14.6;;;9.2;;
60718;SDS011;46567;51.660;5.824;2023-04-30T04:45:50;14.3;;;9.7;;
60718;SDS011;46567;51.660;5.824;2023-04-30T04:50:50;15.5;;;9.9;;
60718;SDS011;46567;51.660;5.824;2023-04-30T04:55:50;12.1;;;9.0;;
60718;SDS011;46567;51.660;5.824;2023-04-30T05:00:50;12.7;;;9.3;;
60718;SDS011;46567;51.660;5.824;2023-04-30T05:05:50;14.9;;;10.2;;
60718;SDS011;46567;51.660;5.824;2023-04-30T05:10:50;15.9;;;9.4;;
60718;SDS011;46567;51.660;5.824;2023-04-30T05:15:51;17.2;;;10.9;;
60718;SDS011;46567;51.660;5.824;2023-04-30T05:20:50;20.2;;;11.6;;
60718;SDS011;46567;51.660;5.824;2023-04-30T05:25:51;17.7;;;10.8;;
60718;SDS011;46567;51.660;5.824;2023-04-30T05:30:50;17.7;;;11.4;;
60718;SDS011;46567;51.660;5.824;2023-04-30T05:35:50;13.8;;;10.3;;
60718;SDS011;46567;51.660;5.824;2023-04-30T05:40:50;17.9;;;10.7;;
60718;SDS011;46567;51.660;5.824;2023-04-30T05:45:50;15.6;;;10.7;;
60718;SDS011;46567;51.660;5.824;2023-04-30T05:50:51;14.3;;;10.7;;
60718;SDS011;46567;51.660;5.824;2023-04-30T05:55:51;14.1;;;10.3;;
60718;SDS011;46567;51.660;5.824;2023-04-30T06:00:50;14.7;;;9.9;;
60718;SDS011;46567;51.660;5.824;2023-04-30T06:05:51;19.1;;;11.0;;
60718;SDS011;46567;51.660;5.824;2023-04-30T06:10:51;13.3;;;9.5;;
60718;SDS011;46567;51.660;5.824;2023-04-30T06:15:51;12.4;;;9.0;;
60718;SDS011;46567;51.660;5.824;2023-04-30T06:20:50;13.9;;;9.3;;
60718;SDS011;46567;51.660;5.824;2023-04-30T06:25:50;11.3;;;8.1;;
60718;SDS011;46567;51.660;5.824;2023-04-30T06:30:50;11.7;;;9.0;;
60718;SDS011;46567;51.660;5.824;2023-04-30T06:35:50;13.0;;;8.1;;
60718;SDS011;46567;51.660;5.824;2023-04-30T06:40:50;12.8;;;8.1;;
60718;SDS011;46567;51.660;5.824;2023-04-30T06:45:50;12.3;;;8.3;;
60718;SDS011;46567;51.660;5.824;2023-04-30T06:50:50;11.9;;;8.7;;
60718;SDS011;46567;51.660;5.824;2023-04-30T06:55:50;11.1;;;8.2;;
60718;SDS011;46567;51.660;5.824;2023-04-30T07:00:50;12.6;;;8.5;;
60718;SDS011;46567;51.660;5.824;2023-04-30T07:05:50;10.9;;;8.2;;
60718;SDS011;46567;51.660;5.824;2023-04-30T07:10:50;10.7;;;7.6;;
60718;SDS011;46567;51.660;5.824;2023-04-30T07:15:50;10.3;;;7.6;;
60718;SDS011;46567;51.660;5.824;2023-04-30T07:20:50;10.8;;;8.2;;
60718;SDS011;46567;51.660;5.824;2023-04-30T07:25:50;9.9;;;7.5;;
60718;SDS011;46567;51.660;5.824;2023-04-30T07:30:50;8.8;;;7.6;;
60718;SDS011;46567;51.660;5.824;2023-04-30T07:35:50;10.0;;;7.1;;
60718;SDS011;46567;51.660;5.824;2023-04-30T07:40:50;8.9;;;7.3;;
60718;SDS011;46567;51.660;5.824;2023-04-30T07:45:50;11.8;;;7.3;;
60718;SDS011;46567;51.660;5.824;2023-04-30T07:50:50;10.5;;;7.1;;
60718;SDS011;46567;51.660;5.824;2023-04-30T07:55:51;8.5;;;7.0;;
60718;SDS011;46567;51.660;5.824;2023-04-30T08:00:50;10.1;;;7.8;;
60718;SDS011;46567;51.660;5.824;2023-04-30T08:05:51;10.8;;;7.4;;
60718;SDS011;46567;51.660;5.824;2023-04-30T08:10:50;10.6;;;7.4;;
60718;SDS011;46567;51.660;5.824;2023-04-30T08:15:51;10.0;;;7.4;;
60718;SDS011;46567;51.660;5.824;2023-04-30T08:20:50;9.7;;;6.9;;
60718;SDS011;46567;51.660;5.824;2023-04-30T08:25:50;10.7;;;7.2;;
60718;SDS011;46567;51.660;5.824;2023-04-30T08:30:51;10.2;;;7.4;;
60718;SDS011;46567;51.660;5.824;2023-04-30T08:35:51;11.4;;;7.5;;
60718;SDS011;46567;51.660;5.824;2023-04-30T08:40:55;10.4;;;7.6;;
60718;SDS011;46567;51.660;5.824;2023-04-30T08:45:51;9.8;;;7.6;;
60718;SDS011;46567;51.660;5.824;2023-04-30T08:50:50;13.3;;;7.8;;
60718;SDS011;46567;51.660;5.824;2023-04-30T08:55:51;11.1;;;8.1;;
60718;SDS011;46567;51.660;5.824;2023-04-30T09:00:50;9.5;;;7.2;;
60718;SDS011;46567;51.660;5.824;2023-04-30T09:05:50;9.2;;;7.6;;
60718;SDS011;46567;51.660;5.824;2023-04-30T09:10:50;8.9;;;7.5;;
60718;SDS011;46567;51.660;5.824;2023-04-30T09:15:50;9.8;;;7.5;;
60718;SDS011;46567;51.660;5.824;2023-04-30T09:21:01;10.9;;;8.3;;
60718;SDS011;46567;51.660;5.824;2023-04-30T09:25:51;11.7;;;7.5;;
60718;SDS011;46567;51.660;5.824;2023-04-30T09:30:51;10.0;;;6.9;;
60718;SDS011;46567;51.660;5.824;2023-04-30T09:35:50;8.4;;;6.5;;
60718;SDS011;46567;51.660;5.824;2023-04-30T09:40:50;7.7;;;5.8;;
60718;SDS011;46567;51.660;5.824;2023-04-30T09:45:51;5.3;;;4.6;;
60718;SDS011;46567;51.660;5.824;2023-04-30T09:50:51;5.8;;;4.1;;
60718;SDS011;46567;51.660;5.824;2023-04-30T09:55:51;5.4;;;4.1;;
60718;SDS011;46567;51.660;5.824;2023-04-30T10:00:51;5.7;;;4.7;;
60718;SDS011;46567;51.660;5.824;2023-04-30T10:05:50;6.1;;;4.9;;
60718;SDS011;46567;51.660;5.824;2023-04-30T10:15:57;6.2;;;4.7;;
60718;SDS011;46567;51.660;5.824;2023-04-30T10:20:50;4.3;;;3.8;;
60718;SDS011;46567;51.660;5.824;2023-04-30T10:25:51;4.6;;;4.0;;
60718;SDS011;46567;51.660;5.824;2023-04-30T10:30:50;5.4;;;4.7;;
60718;SDS011;46567;51.660;5.824;2023-04-30T10:35:52;4.9;;;3.7;;
60718;SDS011;46567;51.660;5.824;2023-04-30T10:40:53;4.4;;;4.0;;
60718;SDS011;46567;51.660;5.824;2023-04-30T10:45:51;5.3;;;4.2;;
60718;SDS011;46567;51.660;5.824;2023-04-30T10:50:53;7.0;;;4.9;;
60718;SDS011;46567;51.660;5.824;2023-04-30T10:55:51;5.7;;;5.1;;
60718;SDS011;46567;51.660;5.824;2023-04-30T11:00:59;5.6;;;4.5;;
60718;SDS011;46567;51.660;5.824;2023-04-30T11:05:51;6.0;;;4.9;;
60718;SDS011;46567;51.660;5.824;2023-04-30T11:10:58;6.1;;;4.6;;
60718;SDS011;46567;51.660;5.824;2023-04-30T11:15:51;4.8;;;3.7;;
60718;SDS011;46567;51.660;5.824;2023-04-30T11:20:51;6.4;;;4.5;;
60718;SDS011;46567;51.660;5.824;2023-04-30T11:25:53;5.7;;;4.9;;
60718;SDS011;46567;51.660;5.824;2023-04-30T11:30:51;7.2;;;5.2;;
60718;SDS011;46567;51.660;5.824;2023-04-30T11:35:51;5.8;;;4.8;;
60718;SDS011;46567;51.660;5.824;2023-04-30T11:40:51;4.2;;;3.7;;
60718;SDS011;46567;51.660;5.824;2023-04-30T11:46:07;4.7;;;3.9;;
60718;SDS011;46567;51.660;5.824;2023-04-30T11:50:51;4.6;;;4.2;;
60718;SDS011;46567;51.660;5.824;2023-04-30T11:55:52;4.3;;;3.9;;
60718;SDS011;46567;51.660;5.824;2023-04-30T12:00:51;5.0;;;3.5;;
60718;SDS011;46567;51.660;5.824;2023-04-30T12:05:51;4.2;;;3.7;;
60718;SDS011;46567;51.660;5.824;2023-04-30T12:10:51;5.4;;;4.4;;
60718;SDS011;46567;51.660;5.824;2023-04-30T12:15:58;4.1;;;3.1;;
60718;SDS011;46567;51.660;5.824;2023-04-30T12:20:51;4.1;;;3.4;;
60718;SDS011;46567;51.660;5.824;2023-04-30T12:25:51;4.4;;;3.6;;
60718;SDS011;46567;51.660;5.824;2023-04-30T12:30:51;3.8;;;3.4;;
60718;SDS011;46567;51.660;5.824;2023-04-30T12:35:51;5.4;;;3.8;;
60718;SDS011;46567;51.660;5.824;2023-04-30T12:40:51;4.2;;;3.3;;
60718;SDS011;46567;51.660;5.824;2023-04-30T12:45:51;3.3;;;2.9;;
60718;SDS011;46567;51.660;5.824;2023-04-30T12:50:51;4.9;;;4.0;;
60718;SDS011;46567;51.660;5.824;2023-04-30T12:56:06;4.4;;;3.5;;
60718;SDS011;46567;51.660;5.824;2023-04-30T13:00:51;4.9;;;3.9;;
60718;SDS011;46567;51.660;5.824;2023-04-30T13:05:51;4.3;;;3.5;;
60718;SDS011;46567;51.660;5.824;2023-04-30T13:10:51;3.4;;;2.7;;
60718;SDS011;46567;51.660;5.824;2023-04-30T13:15:51;3.7;;;2.7;;
60718;SDS011;46567;51.660;5.824;2023-04-30T13:20:51;2.3;;;1.9;;
60718;SDS011;46567;51.660;5.824;2023-04-30T13:25:51;3.3;;;2.5;;
60718;SDS011;46567;51.660;5.824;2023-04-30T13:30:51;4.1;;;2.9;;
60718;SDS011;46567;51.660;5.824;2023-04-30T13:35:51;3.6;;;2.9;;
60718;SDS011;46567;51.660;5.824;2023-04-30T13:40:51;1.9;;;1.7;;
60718;SDS011;46567;51.660;5.824;2023-04-30T13:45:51;5.5;;;2.7;;
60718;SDS011;46567;51.660;5.824;2023-04-30T13:50:51;4.1;;;2.7;;
60718;SDS011;46567;51.660;5.824;2023-04-30T13:55:51;3.9;;;2.4;;
60718;SDS011;46567;51.660;5.824;2023-04-30T14:00:51;2.9;;;2.4;;
60718;SDS011;46567;51.660;5.824;2023-04-30T14:05:51;2.8;;;2.3;;
60718;SDS011;46567;51.660;5.824;2023-04-30T14:10:51;2.3;;;2.0;;
60718;SDS011;46567;51.660;5.824;2023-04-30T14:15:51;3.0;;;2.4;;
60718;SDS011;46567;51.660;5.824;2023-04-30T14:20:51;3.1;;;2.1;;
60718;SDS011;46567;51.660;5.824;2023-04-30T14:25:51;3.3;;;2.5;;
60718;SDS011;46567;51.660;5.824;2023-04-30T14:30:51;3.9;;;2.6;;
60718;SDS011;46567;51.660;5.824;2023-04-30T14:35:51;3.3;;;2.4;;
60718;SDS011;46567;51.660;5.824;2023-04-30T14:40:51;3.1;;;1.7;;
60718;SDS011;46567;51.660;5.824;2023-04-30T14:45:51;2.2;;;1.7;;
60718;SDS011;46567;51.660;5.824;2023-04-30T14:50:51;2.6;;;2.1;;
60718;SDS011;46567;51.660;5.824;2023-04-30T14:55:51;2.5;;;2.0;;
60718;SDS011;46567;51.660;5.824;2023-04-30T15:00:51;3.4;;;1.9;;
60718;SDS011;46567;51.660;5.824;2023-04-30T15:05:51;3.2;;;2.0;;
60718;SDS011;46567;51.660;5.824;2023-04-30T15:10:51;3.8;;;1.7;;
60718;SDS011;46567;51.660;5.824;2023-04-30T15:15:51;3.9;;;1.9;;
60718;SDS011;46567;51.660;5.824;2023-04-30T15:20:51;2.3;;;1.8;;
60718;SDS011;46567;51.660;5.824;2023-04-30T15:25:51;2.6;;;1.7;;
60718;SDS011;46567;51.660;5.824;2023-04-30T15:30:51;4.7;;;2.0;;
60718;SDS011;46567;51.660;5.824;2023-04-30T15:35:51;2.3;;;1.7;;
60718;SDS011;46567;51.660;5.824;2023-04-30T15:40:51;4.1;;;1.6;;
60718;SDS011;46567;51.660;5.824;2023-04-30T15:45:51;2.8;;;1.5;;
60718;SDS011;46567;51.660;5.824;2023-04-30T15:50:51;3.3;;;1.6;;
60718;SDS011;46567;51.660;5.824;2023-04-30T15:55:51;2.0;;;1.4;;
60718;SDS011;46567;51.660;5.824;2023-04-30T16:00:51;2.2;;;1.2;;
60718;SDS011;46567;51.660;5.824;2023-04-30T16:05:51;1.5;;;1.2;;
60718;SDS011;46567;51.660;5.824;2023-04-30T16:10:51;3.0;;;1.3;;
60718;SDS011;46567;51.660;5.824;2023-04-30T16:15:51;2.7;;;1.3;;
60718;SDS011;46567;51.660;5.824;2023-04-30T16:20:51;1.5;;;1.2;;
60718;SDS011;46567;51.660;5.824;2023-04-30T16:25:51;3.2;;;1.2;;
60718;SDS011;46567;51.660;5.824;2023-04-30T16:30:51;2.4;;;1.0;;
60718;SDS011;46567;51.660;5.824;2023-04-30T16:35:51;1.7;;;1.0;;
60718;SDS011;46567;51.660;5.824;2023-04-30T16:40:51;1.4;;;1.0;;
60718;SDS011;46567;51.660;5.824;2023-04-30T16:45:51;3.5;;;1.1;;
60718;SDS011;46567;51.660;5.824;2023-04-30T16:50:51;3.1;;;1.3;;
60718;SDS011;46567;51.660;5.824;2023-04-30T16:55:51;1.3;;;1.0;;
60718;SDS011;46567;51.660;5.824;2023-04-30T17:00:51;2.1;;;1.0;;
60718;SDS011;46567;51.660;5.824;2023-04-30T17:05:51;1.5;;;1.1;;
60718;SDS011;46567;51.660;5.824;2023-04-30T17:10:51;1.6;;;1.0;;
60718;SDS011;46567;51.660;5.824;2023-04-30T17:15:51;1.4;;;1.1;;
60718;SDS011;46567;51.660;5.824;2023-04-30T17:20:51;3.4;;;1.1;;
60718;SDS011;46567;51.660;5.824;2023-04-30T17:25:51;3.0;;;1.0;;
60718;SDS011;46567;51.660;5.824;2023-04-30T17:30:51;2.1;;;1.0;;
60718;SDS011;46567;51.660;5.824;2023-04-30T17:35:51;1.8;;;1.1;;
60718;SDS011;46567;51.660;5.824;2023-04-30T17:40:51;3.1;;;1.4;;
60718;SDS011;46567;51.660;5.824;2023-04-30T17:45:51;1.3;;;1.1;;
60718;SDS011;46567;51.660;5.824;2023-04-30T17:50:51;2.3;;;1.3;;
60718;SDS011;46567;51.660;5.824;2023-04-30T17:55:51;1.8;;;0.9;;
60718;SDS011;46567;51.660;5.824;2023-04-30T18:00:51;2.4;;;0.9;;
60718;SDS011;46567;51.660;5.824;2023-04-30T18:05:51;4.1;;;1.3;;
60718;SDS011;46567;51.660;5.824;2023-04-30T18:10:51;1.4;;;1.1;;
60718;SDS011;46567;51.660;5.824;2023-04-30T18:15:51;1.3;;;0.8;;
60718;SDS011;46567;51.660;5.824;2023-04-30T18:20:51;2.2;;;0.9;;
60718;SDS011;46567;51.660;5.824;2023-04-30T18:25:51;4.3;;;1.1;;
60718;SDS011;46567;51.660;5.824;2023-04-30T18:30:51;2.7;;;1.4;;
60718;SDS011;46567;51.660;5.824;2023-04-30T18:35:51;1.8;;;1.5;;
60718;SDS011;46567;51.660;5.824;2023-04-30T18:40:52;1.9;;;1.3;;
60718;SDS011;46567;51.660;5.824;2023-04-30T18:45:51;4.3;;;1.1;;
60718;SDS011;46567;51.660;5.824;2023-04-30T18:50:51;1.9;;;1.2;;
60718;SDS011;46567;51.660;5.824;2023-04-30T18:55:51;3.0;;;1.2;;
60718;SDS011;46567;51.660;5.824;2023-04-30T19:00:54;2.1;;;1.3;;
60718;SDS011;46567;51.660;5.824;2023-04-30T19:05:52;3.0;;;1.5;;
60718;SDS011;46567;51.660;5.824;2023-04-30T19:10:51;2.2;;;1.3;;
60718;SDS011;46567;51.660;5.824;2023-04-30T19:15:51;3.5;;;1.6;;
60718;SDS011;46567;51.660;5.824;2023-04-30T19:20:53;4.8;;;1.7;;
60718;SDS011;46567;51.660;5.824;2023-04-30T19:25:51;3.8;;;1.7;;
60718;SDS011;46567;51.660;5.824;2023-04-30T19:30:51;3.0;;;1.6;;
60718;SDS011;46567;51.660;5.824;2023-04-30T19:35:51;3.4;;;1.6;;
60718;SDS011;46567;51.660;5.824;2023-04-30T19:40:53;2.1;;;1.6;;
60718;SDS011;46567;51.660;5.824;2023-04-30T19:45:51;3.4;;;1.8;;
60718;SDS011;46567;51.660;5.824;2023-04-30T19:50:51;2.9;;;1.8;;
60718;SDS011;46567;51.660;5.824;2023-04-30T19:55:51;3.3;;;1.7;;
60718;SDS011;46567;51.660;5.824;2023-04-30T20:00:51;2.4;;;1.9;;
60718;SDS011;46567;51.660;5.824;2023-04-30T20:05:51;3.0;;;1.9;;
60718;SDS011;46567;51.660;5.824;2023-04-30T20:10:51;5.4;;;2.4;;
60718;SDS011;46567;51.660;5.824;2023-04-30T20:15:51;3.9;;;2.1;;
60718;SDS011;46567;51.660;5.824;2023-04-30T20:20:51;2.6;;;1.9;;
60718;SDS011;46567;51.660;5.824;2023-04-30T20:25:51;2.3;;;1.9;;
60718;SDS011;46567;51.660;5.824;2023-04-30T20:30:51;2.9;;;1.6;;
60718;SDS011;46567;51.660;5.824;2023-04-30T20:35:51;2.3;;;1.7;;
60718;SDS011;46567;51.660;5.824;2023-04-30T20:40:51;3.8;;;1.9;;
60718;SDS011;46567;51.660;5.824;2023-04-30T20:45:51;4.6;;;2.0;;
60718;SDS011;46567;51.660;5.824;2023-04-30T20:50:51;4.7;;;2.1;;
60718;SDS011;46567;51.660;5.824;2023-04-30T20:55:51;2.6;;;1.8;;
60718;SDS011;46567;51.660;5.824;2023-04-30T21:00:51;3.2;;;1.9;;
60718;SDS011;46567;51.660;5.824;2023-04-30T21:05:51;3.0;;;2.3;;
60718;SDS011;46567;51.660;5.824;2023-04-30T21:10:51;6.4;;;2.6;;
60718;SDS011;46567;51.660;5.824;2023-04-30T21:15:51;3.7;;;2.5;;
60718;SDS011;46567;51.660;5.824;2023-04-30T21:20:51;5.2;;;2.8;;
60718;SDS011;46567;51.660;5.824;2023-04-30T21:25:52;3.5;;;2.3;;
60718;SDS011;46567;51.660;5.824;2023-04-30T21:30:51;3.2;;;2.3;;
60718;SDS011;46567;51.660;5.824;2023-04-30T21:35:51;3.6;;;2.5;;
60718;SDS011;46567;51.660;5.824;2023-04-30T21:40:51;5.0;;;2.4;;
60718;SDS011;46567;51.660;5.824;2023-04-30T21:45:51;3.8;;;2.5;;
60718;SDS011;46567;51.660;5.824;2023-04-30T21:50:51;5.5;;;2.4;;
60718;SDS011;46567;51.660;5.824;2023-04-30T21:55:51;3.7;;;2.5;;
60718;SDS011;46567;51.660;5.824;2023-04-30T22:00:51;5.1;;;2.8;;
60718;SDS011;46567;51.660;5.824;2023-04-30T22:05:51;3.9;;;2.7;;
60718;SDS011;46567;51.660;5.824;2023-04-30T22:10:52;3.4;;;2.5;;
60718;SDS011;46567;51.660;5.824;2023-04-30T22:15:51;3.3;;;2.6;;
60718;SDS011;46567;51.660;5.824;2023-04-30T22:20:51;3.3;;;2.2;;
60718;SDS011;46567;51.660;5.824;2023-04-30T22:25:51;3.4;;;2.3;;
60718;SDS011;46567;51.660;5.824;2023-04-30T22:30:55;3.9;;;3.0;;
60718;SDS011;46567;51.660;5.824;2023-04-30T22:35:51;5.6;;;3.0;;
60718;SDS011;46567;51.660;5.824;2023-04-30T22:40:51;3.1;;;2.7;;
60718;SDS011;46567;51.660;5.824;2023-04-30T22:45:51;5.9;;;3.0;;
60718;SDS011;46567;51.660;5.824;2023-04-30T22:50:51;5.2;;;3.0;;
60718;SDS011;46567;51.660;5.824;2023-04-30T22:55:51;5.1;;;3.1;;
60718;SDS011;46567;51.660;5.824;2023-04-30T23:00:51;7.2;;;3.3;;
60718;SDS011;46567;51.660;5.824;2023-04-30T23:05:51;5.3;;;3.5;;
60718;SDS011;46567;51.660;5.824;2023-04-30T23:10:51;4.8;;;3.3;;
60718;SDS011;46567;51.660;5.824;2023-04-30T23:15:55;6.3;;;3.3;;
60718;SDS011;46567;51.660;5.824;2023-04-30T23:20:52;4.5;;;2.7;;
60718;SDS011;46567;51.660;5.824;2023-04-30T23:25:51;5.5;;;3.1;;
60718;SDS011;46567;51.660;5.824;2023-04-30T23:30:51;4.8;;;3.1;;
60718;SDS011;46567;51.660;5.824;2023-04-30T23:35:52;4.9;;;2.7;;
60718;SDS011;46567;51.660;5.824;2023-04-30T23:40:51;5.8;;;3.2;;
60718;SDS011;46567;51.660;5.824;2023-04-30T23:45:51;4.6;;;2.9;;
60718;SDS011;46567;51.660;5.824;2023-04-30T23:50:58;4.0;;;2.7;;
60718;SDS011;46567;51.660;5.824;2023-04-30T23:55:51;7.2;;;3.0;;
